createdAt,value
2022-11-04T00:00:17.389Z,18.20
2022-11-04T00:04:34.766Z,15.85
2022-11-04T00:08:54.033Z,16.05
2022-11-04T00:13:11.440Z,15.43
2022-11-04T00:17:28.759Z,17.00
2022-11-04T00:22:04.976Z,21.65
2022-11-04T00:26:40.783Z,16.92
2022-11-04T00:31:18.778Z,15.35
2022-11-04T00:35:36.067Z,16.70
2022-11-04T00:39:53.580Z,15.43
2022-11-04T00:44:11.151Z,16.10
2022-11-04T00:48:28.500Z,15.95
2022-11-04T00:52:45.782Z,17.90
2022-11-04T00:57:03.392Z,15.70
2022-11-04T01:01:21.240Z,19.45
2022-11-04T01:05:38.702Z,16.33
2022-11-04T01:09:56.038Z,22.48
2022-11-04T01:14:14.163Z,20.98
2022-11-04T01:18:31.503Z,18.75
2022-11-04T01:22:48.975Z,18.30
2022-11-04T01:27:06.309Z,21.00
2022-11-04T01:31:27.625Z,25.10
2022-11-04T01:35:44.948Z,19.67
2022-11-04T01:40:02.371Z,23.10
2022-11-04T01:44:41.514Z,26.23
2022-11-04T01:49:24.327Z,17.73
2022-11-04T01:53:44.002Z,19.95
2022-11-04T01:58:04.912Z,23.33
2022-11-04T02:02:22.456Z,23.63
2022-11-04T02:06:40.014Z,20.17
2022-11-04T02:11:02.737Z,18.45
2022-11-04T02:15:34.247Z,31.65
2022-11-04T02:20:24.474Z,41.70
2022-11-04T02:25:06.705Z,35.50
2022-11-04T02:29:26.753Z,27.00
2022-11-04T02:34:13.780Z,24.70
2022-11-04T02:38:45.530Z,25.63
2022-11-04T02:43:21.517Z,25.75
2022-11-04T02:47:41.907Z,37.22
2022-11-04T02:52:06.774Z,25.25
2022-11-04T02:56:26.638Z,27.45
2022-11-04T03:00:45.192Z,30.02
2022-11-04T03:05:04.376Z,29.55
2022-11-04T03:09:23.250Z,43.15
2022-11-04T03:18:04.472Z,33.88
2022-11-04T03:22:25.488Z,38.45
2022-11-04T03:26:55.203Z,22.27
2022-11-04T03:31:22.543Z,22.33
2022-11-04T03:35:40.059Z,22.95
2022-11-04T03:39:57.297Z,19.40
2022-11-04T03:44:14.876Z,21.40
2022-11-04T03:48:32.578Z,23.15
2022-11-04T03:52:50.133Z,20.95
2022-11-04T03:57:34.568Z,32.45
2022-11-04T04:02:04.641Z,25.98
2022-11-04T04:06:33.128Z,34.55
2022-11-04T04:11:29.361Z,30.40
2022-11-04T04:15:56.081Z,33.45
2022-11-04T04:20:18.447Z,28.50
2022-11-04T04:24:56.996Z,28.40
2022-11-04T04:29:15.202Z,26.92
2022-11-04T04:33:32.500Z,27.20
2022-11-04T04:37:52.536Z,29.55
2022-11-04T04:42:29.728Z,32.67
2022-11-04T04:46:49.882Z,28.08
2022-11-04T04:51:07.193Z,32.85
2022-11-04T04:55:24.529Z,34.22
2022-11-04T04:59:41.820Z,34.33
2022-11-04T05:03:59.589Z,37.05
2022-11-04T05:08:16.918Z,36.42
2022-11-04T05:12:57.713Z,31.42
2022-11-04T05:17:15.570Z,30.52
2022-11-04T05:21:32.939Z,32.50
2022-11-04T05:25:50.265Z,41.40
2022-11-04T05:30:08.323Z,37.83
2022-11-04T05:34:25.707Z,39.43
2022-11-04T05:38:44.077Z,34.08
2022-11-04T05:43:01.633Z,34.80
2022-11-04T05:47:18.981Z,42.42
2022-11-04T05:51:36.560Z,64.53
2022-11-04T05:55:53.897Z,53.03
2022-11-04T06:00:13.090Z,38.33
2022-11-04T06:04:30.522Z,46.53
2022-11-04T06:08:47.962Z,42.75
2022-11-04T06:13:05.282Z,47.75
2022-11-04T06:17:23.036Z,42.97
2022-11-04T06:21:40.607Z,38.60
2022-11-04T06:25:57.894Z,60.13
2022-11-04T06:30:16.753Z,57.55
2022-11-04T06:34:40.770Z,58.13
2022-11-04T06:39:04.149Z,49.92
2022-11-04T06:43:22.832Z,37.13
2022-11-04T06:47:41.981Z,41.67
2022-11-04T06:52:01.390Z,136.67
2022-11-04T06:56:19.330Z,46.92
2022-11-04T07:00:40.240Z,43.90
2022-11-04T07:09:15.981Z,41.95
2022-11-04T07:13:35.124Z,46.90
2022-11-04T07:17:52.792Z,114.55
2022-11-04T07:22:14.189Z,44.67
2022-11-04T07:26:34.951Z,46.15
2022-11-04T07:30:56.808Z,38.65
2022-11-04T07:35:15.128Z,46.33
2022-11-04T07:39:33.278Z,40.55
2022-11-04T07:43:51.878Z,24.27
2022-11-04T07:52:28.148Z,19.60
2022-11-04T07:56:46.585Z,24.10
2022-11-04T08:01:07.652Z,25.65
2022-11-04T08:05:25.463Z,20.23
2022-11-04T08:09:43.103Z,17.02
2022-11-04T08:14:04.329Z,14.02
2022-11-04T08:18:21.702Z,10.52
2022-11-04T08:22:39.215Z,14.82
2022-11-04T08:26:56.584Z,15.30
2022-11-04T08:31:22.646Z,11.30
2022-11-04T08:35:42.813Z,10.82
2022-11-04T08:40:00.234Z,10.25
2022-11-04T08:44:17.958Z,10.27
2022-11-04T08:48:36.819Z,8.77
2022-11-04T08:57:11.790Z,11.27
2022-11-04T09:01:35.422Z,6.07
2022-11-04T09:05:53.249Z,5.88
2022-11-04T09:10:11.626Z,9.77
2022-11-04T09:14:29.028Z,7.95
2022-11-04T09:18:46.306Z,6.45
2022-11-04T09:23:04.000Z,7.05
2022-11-04T09:27:21.411Z,9.02
2022-11-04T09:31:39.259Z,7.45
2022-11-04T09:35:57.939Z,9.88
2022-11-04T09:40:21.900Z,8.88
2022-11-04T09:45:21.287Z,6.60
2022-11-04T09:49:42.454Z,5.03
2022-11-04T09:54:04.883Z,7.85
2022-11-04T09:58:22.824Z,4.35
2022-11-04T10:02:55.099Z,5.37
2022-11-04T10:07:35.460Z,2.33
2022-11-04T10:11:55.870Z,2.05
2022-11-04T10:16:45.553Z,3.20
2022-11-04T10:21:17.996Z,2.70
2022-11-04T10:26:02.319Z,3.47
2022-11-04T10:30:22.701Z,2.25
2022-11-04T10:35:05.891Z,3.85
2022-11-04T10:39:31.056Z,2.00
2022-11-04T10:43:49.244Z,3.65
2022-11-04T10:48:17.739Z,18.77
2022-11-04T10:52:36.244Z,3.00
2022-11-04T10:56:56.428Z,3.13
2022-11-04T11:01:30.180Z,6.07
2022-11-04T11:05:49.493Z,3.17
2022-11-04T11:10:20.856Z,3.70
2022-11-04T11:14:42.788Z,4.95
2022-11-04T11:19:31.804Z,4.82
2022-11-04T11:23:51.212Z,5.00
2022-11-04T11:28:21.287Z,4.57
2022-11-04T11:32:43.398Z,4.13
2022-11-04T11:37:05.648Z,5.38
2022-11-04T11:41:29.048Z,7.00
2022-11-04T11:45:49.990Z,4.70
2022-11-04T11:50:19.660Z,6.78
2022-11-04T11:54:39.213Z,4.25
2022-11-04T12:13:27.775Z,6.80
2022-11-04T12:17:55.454Z,3.17
2022-11-04T12:22:39.577Z,3.50
2022-11-04T12:27:34.107Z,5.72
2022-11-04T12:32:19.883Z,6.20
2022-11-04T12:37:04.299Z,9.50
2022-11-04T12:42:14.283Z,4.45
2022-11-04T12:46:40.450Z,4.43
2022-11-04T12:51:33.100Z,7.13
2022-11-04T12:55:59.354Z,6.05
2022-11-04T13:00:24.778Z,6.32
2022-11-04T13:04:52.951Z,5.65
2022-11-04T13:09:37.876Z,3.22
2022-11-04T13:14:06.442Z,4.00
2022-11-04T13:18:29.002Z,4.75
2022-11-04T13:22:51.516Z,5.47
2022-11-04T13:27:19.788Z,4.50
2022-11-04T13:31:51.736Z,4.10
2022-11-04T13:36:37.184Z,4.70
2022-11-04T13:41:17.372Z,4.53
2022-11-04T13:45:51.278Z,7.75
2022-11-04T13:50:33.203Z,4.00
2022-11-04T13:54:57.177Z,3.90
2022-11-04T13:59:35.365Z,7.32
2022-11-04T14:04:13.716Z,6.25
2022-11-04T14:08:31.975Z,3.30
2022-11-04T14:12:49.412Z,5.97
2022-11-04T14:17:35.614Z,3.45
2022-11-04T14:22:08.103Z,5.70
2022-11-04T14:26:40.777Z,6.30
2022-11-04T14:31:16.879Z,4.65
2022-11-04T14:35:36.094Z,13.07
2022-11-04T14:39:57.818Z,17.13
2022-11-04T14:44:30.093Z,19.08
2022-11-04T14:48:54.289Z,6.53
2022-11-04T14:53:19.628Z,7.57
2022-11-04T14:57:47.212Z,10.13
2022-11-04T15:02:04.688Z,12.65
2022-11-04T15:06:53.607Z,15.70
2022-11-04T15:11:15.704Z,19.27
2022-11-04T15:15:41.626Z,14.10
2022-11-04T15:20:01.989Z,14.40
2022-11-04T15:24:19.369Z,19.95
2022-11-04T15:28:46.383Z,18.48
2022-11-04T15:33:04.480Z,14.85
2022-11-04T15:37:24.056Z,21.03
2022-11-04T15:42:01.324Z,14.85
2022-11-04T15:46:19.897Z,18.80
2022-11-04T15:50:38.618Z,16.75
2022-11-04T15:59:20.321Z,25.38
2022-11-04T16:03:37.590Z,23.60
2022-11-04T16:08:13.950Z,20.13
2022-11-04T16:12:37.612Z,34.63
2022-11-04T16:16:55.045Z,37.95
2022-11-04T16:21:28.595Z,34.08
2022-11-04T16:25:46.031Z,30.27
2022-11-04T16:30:18.944Z,24.15
2022-11-04T16:34:36.345Z,36.60
2022-11-04T16:38:55.954Z,40.65
2022-11-04T16:43:16.365Z,87.28
2022-11-04T16:47:39.960Z,37.50
2022-11-04T16:52:03.262Z,45.85
2022-11-04T16:56:23.229Z,36.08
2022-11-04T17:00:40.928Z,18.10
2022-11-04T17:04:59.029Z,22.17
2022-11-04T17:09:23.288Z,20.50
2022-11-04T17:13:40.668Z,30.85
2022-11-04T17:17:57.979Z,21.70
2022-11-04T17:22:15.353Z,32.10
2022-11-04T17:26:33.360Z,30.98
2022-11-04T17:30:50.746Z,34.67
2022-11-04T17:35:08.778Z,23.88
2022-11-04T17:39:26.120Z,35.03
2022-11-04T17:44:01.548Z,29.40
2022-11-04T17:48:18.830Z,49.00
2022-11-04T17:52:36.943Z,33.15
2022-11-04T17:56:54.578Z,24.13
2022-11-04T18:01:14.451Z,19.65
2022-11-04T18:05:34.479Z,41.13
2022-11-04T18:09:52.105Z,40.72
2022-11-04T18:14:16.228Z,37.33
2022-11-04T18:18:34.122Z,23.40
2022-11-04T18:22:51.398Z,21.27
2022-11-04T18:27:08.799Z,33.53
2022-11-04T18:31:35.640Z,34.15
2022-11-04T18:35:52.982Z,27.65
2022-11-04T18:40:11.861Z,31.50
2022-11-04T18:44:29.342Z,23.42
2022-11-04T18:48:50.855Z,49.65
2022-11-04T18:53:08.426Z,30.92
2022-11-04T18:57:25.933Z,51.88
2022-11-04T19:01:45.655Z,62.05
2022-11-04T19:06:12.973Z,32.08
2022-11-04T19:10:30.345Z,43.78
2022-11-04T19:14:47.761Z,35.38
2022-11-04T19:19:07.240Z,30.30
2022-11-04T19:23:24.524Z,39.25
2022-11-04T19:27:42.519Z,54.10
2022-11-04T19:36:26.025Z,40.30
2022-11-04T19:40:45.683Z,62.60
2022-11-04T19:45:07.269Z,32.10
2022-11-04T19:49:24.546Z,41.00
2022-11-04T19:53:42.019Z,37.10
2022-11-04T19:57:59.438Z,48.85
2022-11-04T20:02:17.068Z,67.88
2022-11-04T20:06:35.223Z,31.85
2022-11-04T20:10:52.671Z,36.97
2022-11-04T20:15:10.881Z,30.55
2022-11-04T20:19:31.084Z,27.17
2022-11-04T20:23:48.383Z,28.52
2022-11-04T20:28:05.823Z,23.73
2022-11-04T20:32:26.212Z,28.30
2022-11-04T20:36:43.666Z,31.73
2022-11-04T20:41:08.916Z,33.10
2022-11-04T20:45:26.383Z,29.35
2022-11-04T20:49:44.666Z,35.53
2022-11-04T20:54:04.382Z,42.53
2022-11-04T20:58:21.681Z,37.65
2022-11-04T21:02:39.207Z,37.50
2022-11-04T21:06:56.607Z,34.47
2022-11-04T21:11:14.030Z,36.33
2022-11-04T21:15:44.138Z,29.75
2022-11-04T21:20:01.839Z,37.25
2022-11-04T21:24:19.269Z,37.50
2022-11-04T21:28:38.241Z,46.58
2022-11-04T21:32:57.098Z,36.20
2022-11-04T21:37:14.589Z,33.75
2022-11-04T21:41:37.541Z,32.58
2022-11-04T21:46:08.229Z,35.45
2022-11-04T21:50:25.568Z,24.25
2022-11-04T21:54:42.980Z,28.80
2022-11-04T21:59:01.245Z,32.10
2022-11-04T22:03:18.543Z,42.88
2022-11-04T22:07:54.275Z,81.68
2022-11-04T22:12:11.619Z,114.82
2022-11-04T22:16:31.849Z,62.53
2022-11-04T22:20:49.373Z,39.83
2022-11-04T22:25:07.970Z,46.22
2022-11-04T22:29:25.790Z,95.82
2022-11-04T22:33:43.358Z,39.93
2022-11-04T22:38:00.714Z,73.10
2022-11-04T22:42:18.050Z,76.65
2022-11-04T22:46:35.353Z,113.43
2022-11-04T22:50:57.525Z,105.53
2022-11-04T22:55:14.962Z,110.63
2022-11-04T22:59:32.360Z,70.68
2022-11-04T23:03:51.825Z,78.85
2022-11-04T23:08:09.490Z,96.00
2022-11-04T23:12:45.346Z,73.72
2022-11-04T23:17:26.297Z,69.68
2022-11-04T23:22:02.302Z,66.15
2022-11-04T23:26:22.463Z,116.45
2022-11-04T23:30:46.272Z,37.45
2022-11-04T23:35:22.190Z,47.95
2022-11-04T23:39:44.822Z,113.65
2022-11-04T23:44:02.083Z,110.95
2022-11-04T23:48:38.225Z,88.30
2022-11-04T23:53:14.356Z,91.63
2022-11-04T23:57:50.221Z,60.90
